Portada
METAR-TAF:

METAR-TAF

Aeropuertos :

Columbus, Indiana, Estados Unidos

latitud: 39-16N, longitud: 085-54W, altitud: 200 m

Observación

El informe se hizo hace 49 minutos, a las 18:45 UTC
Viento calma
Temperatura 30°C
Humedad 62%
Presión 1024 hPa
Visibilidad: 16.1 km
Nubes dispersas a una altura de 3700 ft
Cielo nuboso a una altura de 4600 ft
Cielo nuboso a una altura de 6000 ft

METAR: KBAK 191845Z 00000KT 10SM SCT037 BKN046 BKN060 30/22 A3024

Hora: 15:34 (19:34 UTC)


TAF: falta

Observaciones y pronósticos meteorológicos de más de 4000 aeropuertos (mensajes METAR y TAF).

Los puntos amarillos y rojos representan las estaciones disponibles.

Ponga el ratón en el punto deseado para ver el nombre de la estación.

Haga clic para ver las observaciones y los pronósticos meteorológicos.

Para cambiar el mapa : haga clic en los botones verdes con una cruz de color negro para hacer un zoom, en el botón verde con un guión para alejar o en las flechas verdes para mapas adyacentes.


METAR-TAF: